Flight Track Log - Related Links

Times and Time Zones

All times are in EDT time to prevent confusion due to time zone crossing. See the ASH3785 flight status page for this flight to view local times or setup timezone preferences in your user account.

Time Position Orientation Groundspeed Altitude Reporting Facility
EDT Latitude Longitude Course Direction KTS MPH feet Rate Location/Type
Sat 02:13:59 PM 36.8806 -76.2178 282° West 163 188 700  Level Washington Center
Sat 02:14:47 PM 36.8447 -76.2486 215° Southwest 211 243 2,400 1,817 Climbing Washington Center
Sat 02:15:48 PM 36.8131 -76.3183 240° Southwest 262 302 4,000 2,049 Climbing Washington Center
Sat 02:16:50 PM 36.8144 -76.4194 271° West 280 322 6,600 2,558 Climbing Washington Center
Sat 02:17:00 PM 36.9854 -76.7123 282° West  Level FlightAware
Sat 02:17:57 PM 36.8158 -76.5131 271° West 288 331 9,500  Level Washington Center
Sat 02:18:00 PM 37.0073 -76.8437 282° West  Level FlightAware
Sat 02:18:57 PM 36.8547 -76.6069 297° West 293 337 10,800  Level Washington Center
Sat 02:19:00 PM 37.0292 -76.9751 282° West  Level FlightAware
Sat 02:19:58 PM 36.8978 -76.7086 298° West 309 356 13,000  Level Washington Center
Sat 02:20:59 PM 36.9425 -76.8158 298° West 331 381 15,000 1,500 Climbing Washington Center
Sat 02:21:58 PM 36.9872 -76.9231 298° West 339 390 16,000 610 Climbing Washington Center
Sat 02:22:57 PM 37.0339 -77.0383 297° West 352 405 16,200 605 Climbing Washington Center
Sat 02:23:57 PM 37.0658 -77.1717 287° West 380 437 17,200 942 Climbing Washington Center
Sat 02:24:58 PM 37.0931 -77.3131 284° West 401 461 18,100 1,190 Climbing Washington Center
Sat 02:25:58 PM 37.1181 -77.4517 283° West 412 474 19,600 1,500 Climbing Washington Center
Sat 02:26:58 PM 37.1408 -77.5928 281° West 412 474 21,100 1,488 Climbing Washington Center
Sat 02:27:59 PM 37.1656 -77.7317 283° West 412 474 22,600 1,513 Climbing Washington Center
Sat 02:28:57 PM 37.2092 -77.8553 294° West 394 453 24,100 1,311 Climbing Washington Center
Sat 02:29:58 PM 37.2694 -77.9667 304° West 389 448 25,200 1,050 Climbing Washington Center
Sat 02:30:57 PM 37.3361 -78.0811 306° West 400 460 26,200 950 Climbing Washington Center
Sat 02:31:58 PM 37.4083 -78.2092 305° West 405 466 27,100 793 Climbing Washington Center
Sat 02:32:58 PM 37.4747 -78.3239 306° West 411 473 27,800 793 Climbing Washington Center
Sat 02:33:59 PM 37.5408 -78.4442 305° West 411 473 28,700 893 Climbing Washington Center
Sat 02:34:59 PM 37.6067 -78.5644 305° West 416 479 29,600 908 Climbing Washington Center
Sat 02:35:58 PM 37.6575 -78.6950 296° West 416 479 30,500 900 Climbing Washington Center
Sat 02:36:59 PM 37.6622 -78.8342 272° West 400 460 31,400 694 Climbing Washington Center
Sat 02:37:59 PM 37.6750 -78.9739 277° West 400 460 31,900 712 Climbing Washington Center
Sat 02:38:57 PM 37.7342 -79.0975 301° West 400 460 32,800 661 Climbing Washington Center
Sat 02:39:57 PM 37.8231 -79.1936 320° Northwest 400 460 33,200 595 Climbing Washington Center
Sat 02:40:58 PM 37.9097 -79.2950 317° Northwest 412 474 34,000 400 Climbing Washington Center
Sat 02:41:57 PM 37.9811 -79.4144 307° West 417 480 34,000  Level Washington Center
Sat 02:42:57 PM 38.0458 -79.5392 303° West 422 486 34,000  Level Washington Center
Sat 02:43:58 PM 38.1106 -79.6639 303° West 428 493 34,000  Level Washington Center
Sat 02:44:59 PM 38.1750 -79.7864 304° West 428 493 34,000  Level Washington Center
Sat 02:45:57 PM 38.2375 -79.9061 304° West 422 486 34,000  Level Washington Center
Sat 02:47:48 PM 38.3447 -80.1069 304° West 412 474 34,000 244 Level Indianapolis Center
Sat 02:48:49 PM 38.4072 -80.2272 304° West 411 473 34,700 488 Climbing Indianapolis Center
Sat 02:49:51 PM 38.4700 -80.3467 304° West 410 472 35,000 146 Climbing Indianapolis Center
Sat 02:50:52 PM 38.5386 -80.4769 304° West 410 472 35,000  Level Indianapolis Center
Sat 02:51:54 PM 38.6008 -80.5986 303° West 408 470 35,000  Level Indianapolis Center
Sat 02:52:56 PM 38.6642 -80.7203 304° West 409 471 35,000  Level Indianapolis Center
Sat 02:53:57 PM 38.7406 -80.8681 304° West 412 474 35,000  Level Indianapolis Center
Sat 02:54:59 PM 38.8033 -80.9917 303° West 413 475 35,000  Level Indianapolis Center
Sat 02:56:01 PM 38.8658 -81.1119 304° West 412 474 35,000  Level Indianapolis Center
Sat 02:57:02 PM 38.9150 -81.2417 296° West 412 474 35,000 98 Level Indianapolis Center
Sat 02:58:04 PM 38.9561 -81.3792 291° West 412 474 35,200 339 Climbing Indianapolis Center
Sat 02:59:06 PM 39.0056 -81.5119 296° West 413 475 35,700 78 Climbing Indianapolis Center
Sat 03:08:21 PM 39.4664 -82.7869 297° West 419 482 36,000 29 Climbing Indianapolis Center
Sat 03:09:22 PM 39.5442 -82.8972 312° West 412 474 36,000  Level Indianapolis Center
Sat 03:10:24 PM 39.6178 -83.0117 310° West 413 475 36,000  Level Indianapolis Center
Sat 03:11:25 PM 39.6911 -83.1244 310° West 413 475 36,000  Level Indianapolis Center
Sat 03:12:27 PM 39.7658 -83.2397 310° West 413 475 36,000  Level Indianapolis Center
Sat 03:13:28 PM 39.8439 -83.3597 310° West 416 479 36,000  Level Indianapolis Center
Sat 03:14:30 PM 39.9189 -83.4786 309° West 422 486 36,000  Level Indianapolis Center
Sat 03:15:32 PM 40.0028 -83.6092 310° West 426 490 36,000  Level Indianapolis Center
Sat 03:16:33 PM 40.0778 -83.7275 310° West 430 495 36,000  Level Indianapolis Center
Sat 03:17:35 PM 40.1528 -83.8464 310° West 429 494 36,000  Level Indianapolis Center
Sat 03:19:38 PM 40.3161 -84.1067 310° West 423 487 36,000  Level Indianapolis Center
Sat 03:20:40 PM 40.3900 -84.2239 310° West 423 487 36,000 -49 Level Indianapolis Center
Sat 03:21:41 PM 40.4639 -84.3419 309° West 421 484 35,900 -829 Descending Indianapolis Center
Sat 03:22:43 PM 40.5364 -84.4617 309° West 421 484 34,300 -919 Descending Indianapolis Center
Sat 03:23:45 PM 40.6081 -84.5800 309° West 420 483 34,000 -151 Descending Indianapolis Center
Sat 03:24:42 PM 40.6897 -84.7114 309° West 417 480 34,000  Level Chicago Center
Sat 03:25:44 PM 40.7639 -84.8322 309° West 421 484 34,000  Level Chicago Center
Sat 03:26:46 PM 40.8256 -84.9653 302° West 423 487 34,000  Level Chicago Center
Sat 03:27:48 PM 40.8864 -85.1025 300° West 427 491 34,000 -48 Level Chicago Center
Sat 03:28:50 PM 40.9472 -85.2428 300° West 435 501 33,900 -823 Descending Chicago Center
Sat 03:29:52 PM 41.0061 -85.3814 299° West 435 501 32,300 -1,561 Descending Chicago Center
Sat 03:30:53 PM 41.0656 -85.5206 300° West 435 501 30,700 -1,902 Descending Chicago Center
Sat 03:31:55 PM 41.1264 -85.6639 299° West 441 507 28,400 -2,323 Descending Chicago Center
Sat 03:32:57 PM 41.2003 -85.8372 300° West 447 514 25,900 -1,645 Descending Chicago Center
Sat 03:33:59 PM 41.2619 -85.9858 299° West 453 521 25,000 -581 Descending Chicago Center
Sat 03:35:01 PM 41.3014 -86.1494 288° West 466 536 24,700 -919 Descending Chicago Center
Sat 03:36:03 PM 41.3319 -86.3128 284° West 456 525 23,100 -829 Descending Chicago Center
Sat 03:37:04 PM 41.3603 -86.4731 283° West 447 514 23,000 -780 Descending Chicago Center
Sat 03:38:06 PM 41.4050 -86.6300 291° West 451 519 21,500 -1,984 Descending Chicago Center
Sat 03:39:08 PM 41.4544 -86.7975 292° West 440 506 18,900 -2,371 Descending Chicago Center
Sat 03:40:10 PM 41.5008 -86.9500 292° West 421 484 16,600 -2,371 Descending Chicago Center
Sat 03:41:12 PM 41.5422 -87.1028 290° West 410 472 14,000 -2,177 Descending Chicago Center
Sat 03:42:14 PM 41.5822 -87.2364 292° West 389 448 12,100 -1,065 Descending Chicago Center
Sat 03:43:16 PM 41.6492 -87.3331 313° West 352 405 11,800 -927 Descending Chicago Center
Sat 03:44:17 PM 41.7158 -87.4197 316° Northwest 311 358 10,200 -1,610 Descending Chicago Center
Sat 03:45:19 PM 41.7792 -87.4908 320° Northwest 302 348 8,500 -1,065 Descending Chicago Center
Sat 03:46:21 PM 41.8456 -87.5636 321° Northwest 291 335 8,000 -194 Descending Chicago Center
Sat 03:47:23 PM 41.8867 -87.6381 307° West 254 292 8,100 -48 Climbing Chicago Center
Sat 03:48:25 PM 41.8853 -87.7278 269° West 223 257 7,900 -484 Descending Chicago Center
Sat 03:49:27 PM 41.8831 -87.8081 268° West 221 254 7,100 -387 Descending Chicago Center
Sat 03:50:29 PM 41.8836 -87.9033 270° West 238 274 7,100 -290 Level Chicago Center
Sat 03:51:31 PM 41.8836 -87.9922 270° West 239 275 6,500 -816 Descending Chicago Center
Sat 03:52:34 PM 41.8842 -88.0817 271° West 239 275 5,400 -1,016 Descending Chicago Center
Sat 03:53:35 PM 41.8989 -88.1708 283° West 246 283 4,400 -683 Descending Chicago Center
Sat 03:54:37 PM 41.9469 -88.1386 27° Northeast 218 251 4,000 -823 Descending Chicago Center
Sat 03:55:39 PM 41.9642 -88.0619 73° East 209 241 2,700 -1,065 Descending Chicago Center
Sat 03:56:41 PM 41.9647 -87.9961 89° East 178 205 1,800 -823 Descending Chicago Center
Sat 03:57:43 PM 41.9642 -87.9464 91° East 140 161 1,000 -435 Descending Chicago Center
Sat 03:58:45 PM 41.9642 -87.8986 90° East 139 160 900 -97 Descending Chicago Center

Login

Don't have an account? Register now (free) for customized features, flight alerts, and more!